Time;durP1;ratioP1;P1;durP2;ratioP2;P2;SDS_P1;SDS_P2;PMS_P1;PMS_P2;Temp;Humidity;BMP_temperature;BMP_pressure;BME280_temperature;BME280_humidity;BME280_pressure;Samples;Min_cycle;Max_cycle;Signal;HPM_P1;HPM_P2
2022/12/12 00:01:42;;;;;;;22.67;14.32;;;-0.40;99.90;;;;;;5057429;28;20209;-88
2022/12/12 00:04:07;;;;;;;21.67;13.10;;;-0.50;99.90;;;;;;5056809;28;20661;-89
2022/12/12 00:06:33;;;;;;;30.37;15.00;;;-0.50;99.90;;;;;;5038731;28;20297;-89
2022/12/12 00:08:59;;;;;;;19.67;12.70;;;-0.50;99.90;;;;;;5057306;28;20175;-88
2022/12/12 00:11:25;;;;;;;22.73;14.88;;;-0.40;99.90;;;;;;5039003;28;20178;-88
2022/12/12 00:13:53;;;;;;;29.75;13.73;;;-0.40;99.90;;;;;;5058077;28;20239;-87
2022/12/12 00:16:19;;;;;;;24.27;12.50;;;-0.40;99.90;;;;;;5022834;28;20190;-88
2022/12/12 00:18:45;;;;;;;19.30;12.25;;;-0.30;99.90;;;;;;5063110;28;20170;-88
2022/12/12 00:21:14;;;;;;;22.70;12.60;;;-0.40;99.90;;;;;;5038939;28;20178;-89
2022/12/12 00:23:40;;;;;;;18.35;11.90;;;-0.40;99.90;;;;;;5056128;28;20539;-89
2022/12/12 00:26:13;;;;;;;21.30;11.80;;;-0.40;99.90;;;;;;5057247;28;20179;-89
2022/12/12 00:28:39;;;;;;;19.80;11.93;;;-0.40;99.90;;;;;;5039205;28;20428;-88
2022/12/12 00:31:05;;;;;;;20.37;11.90;;;-0.40;99.90;;;;;;5038241;28;20251;-89
2022/12/12 00:33:30;;;;;;;25.53;13.67;;;-0.40;99.90;;;;;;5056052;28;20192;-89
2022/12/12 00:35:56;;;;;;;20.77;12.33;;;-0.40;99.90;;;;;;5055126;28;20652;-89
2022/12/12 00:38:25;;;;;;;21.40;13.00;;;-0.40;99.90;;;;;;5059315;28;20190;-88
2022/12/12 00:40:58;;;;;;;20.27;12.63;;;-0.40;99.90;;;;;;5056710;28;20209;-89
2022/12/12 00:43:24;;;;;;;24.15;12.07;;;-0.40;99.90;;;;;;5038470;28;20630;-87
2022/12/12 00:45:50;;;;;;;22.15;13.10;;;-0.40;99.90;;;;;;5056188;28;20177;-88
2022/12/12 00:48:16;;;;;;;21.30;11.77;;;-0.40;99.90;;;;;;5054752;28;20202;-88
2022/12/12 00:50:42;;;;;;;17.70;11.17;;;-0.40;99.90;;;;;;5055594;28;20181;-89
2022/12/12 00:53:08;;;;;;;18.17;11.90;;;-0.40;99.90;;;;;;5037943;28;20513;-88
2022/12/12 00:55:33;;;;;;;18.17;10.60;;;-0.40;99.90;;;;;;5055725;28;20169;-88
2022/12/12 00:57:59;;;;;;;19.37;10.70;;;-0.40;99.90;;;;;;5055305;28;20410;-88
2022/12/12 01:00:26;;;;;;;21.98;12.65;;;-0.40;99.90;;;;;;5056212;28;20186;-88
2022/12/12 01:02:56;;;;;;;22.80;14.00;;;-0.50;99.90;;;;;;5055445;28;20281;-89
2022/12/12 01:05:24;;;;;;;17.38;12.05;;;-0.50;99.90;;;;;;5055533;28;20468;-88
2022/12/12 01:07:50;;;;;;;22.15;12.43;;;-0.50;99.90;;;;;;5056013;28;20181;-88
2022/12/12 01:10:16;;;;;;;22.00;11.20;;;-0.50;99.90;;;;;;5038449;28;20228;-87
2022/12/12 01:12:42;;;;;;;18.47;11.90;;;-0.50;99.90;;;;;;5054585;28;20491;-88
2022/12/12 01:15:09;;;;;;;17.03;11.50;;;-0.50;99.90;;;;;;5037993;28;20428;-88
2022/12/12 01:17:36;;;;;;;17.05;10.38;;;-0.50;99.90;;;;;;5057491;28;20192;-86
2022/12/12 01:20:07;;;;;;;17.98;11.15;;;-0.50;99.90;;;;;;5039760;28;20296;-88
2022/12/12 01:22:33;;;;;;;18.60;9.88;;;-0.50;99.90;;;;;;5038023;28;20253;-88
2022/12/12 01:24:59;;;;;;;20.17;11.00;;;-0.50;99.90;;;;;;5056506;28;20173;-89
2022/12/12 01:27:26;;;;;;;17.60;10.50;;;-0.50;99.90;;;;;;5040186;28;20408;-88
2022/12/12 01:29:51;;;;;;;16.63;10.63;;;-0.50;99.90;;;;;;5057745;28;20215;-89
2022/12/12 01:32:17;;;;;;;18.73;11.20;;;-0.40;99.90;;;;;;5059699;28;20193;-87
2022/12/12 01:34:43;;;;;;;21.20;11.43;;;-0.50;99.90;;;;;;5059484;28;20178;-88
2022/12/12 01:37:08;;;;;;;17.23;11.20;;;-0.50;99.90;;;;;;5059530;28;20182;-88
2022/12/12 01:39:34;;;;;;;15.10;10.40;;;-0.50;99.90;;;;;;5059624;28;20594;-88
2022/12/12 01:42:00;;;;;;;21.30;11.60;;;-0.50;99.90;;;;;;5059491;28;20177;-89
2022/12/12 01:44:42;;;;;;;16.77;10.90;;;-0.40;99.90;;;;;;5059081;28;20257;-88
2022/12/12 01:47:07;;;;;;;20.52;10.88;;;-0.40;99.90;;;;;;5041455;28;20178;-88
2022/12/12 01:49:34;;;;;;;22.30;10.88;;;-0.50;99.90;;;;;;5041308;28;20239;-88
2022/12/12 01:52:06;;;;;;;18.23;10.60;;;-0.50;99.90;;;;;;5060027;28;20206;-88
2022/12/12 01:54:35;;;;;;;22.73;11.02;;;-0.50;99.90;;;;;;5041456;28;20181;-87
2022/12/12 01:57:05;;;;;;;16.48;10.13;;;-0.50;99.90;;;;;;5041810;28;20185;-88
2022/12/12 01:59:32;;;;;;;16.75;10.50;;;-0.50;99.90;;;;;;5041036;28;20197;-88
2022/12/12 02:01:58;;;;;;;19.98;11.48;;;-0.50;99.90;;;;;;5059988;28;20189;-88
2022/12/12 02:04:26;;;;;;;16.95;10.60;;;-0.60;99.90;;;;;;5041632;28;20700;-88
2022/12/12 02:06:54;;;;;;;19.13;10.93;;;-0.50;99.90;;;;;;5058732;28;20240;-88
2022/12/12 02:09:21;;;;;;;17.08;10.90;;;-0.60;99.90;;;;;;5058846;28;20208;-89
2022/12/12 02:11:55;;;;;;;17.85;11.25;;;-0.60;99.90;;;;;;5041096;28;20227;-88
2022/12/12 02:14:27;;;;;;;17.48;9.88;;;-0.60;99.90;;;;;;5058561;28;20236;-88
2022/12/12 02:17:09;;;;;;;20.70;11.30;;;-0.70;99.90;;;;;;5059430;28;20249;-89
2022/12/12 02:20:02;;;;;;;19.05;10.57;;;-0.60;99.90;;;;;;5041071;28;20174;-89
2022/12/12 02:22:39;;;;;;;13.60;9.10;;;-0.60;99.90;;;;;;5058706;28;20178;-88
2022/12/12 02:25:18;;;;;;;14.90;9.55;;;-0.60;99.90;;;;;;5058272;28;20170;-88
2022/12/12 02:27:59;;;;;;;17.05;10.13;;;-0.60;99.90;;;;;;5059406;28;20261;-88
2022/12/12 02:31:10;;;;;;;16.75;9.65;;;-0.60;99.90;;;;;;5057846;28;20184;-89
2022/12/12 02:34:05;;;;;;;21.10;10.43;;;-0.60;99.90;;;;;;5036742;28;20229;-89
2022/12/12 02:36:40;;;;;;;16.65;10.18;;;-0.70;99.90;;;;;;5058884;28;20185;-89
2022/12/12 02:39:26;;;;;;;17.13;10.15;;;-0.70;99.90;;;;;;5058908;28;20172;-89
2022/12/12 02:42:20;;;;;;;12.98;8.98;;;-0.80;99.90;;;;;;5040409;28;20193;-88
2022/12/12 02:45:11;;;;;;;13.40;8.45;;;-0.80;99.90;;;;;;5011997;28;20194;-89
2022/12/12 02:47:41;;;;;;;16.80;9.32;;;-0.80;99.90;;;;;;5059827;28;20239;-89
2022/12/12 02:50:18;;;;;;;14.13;8.57;;;-0.80;99.90;;;;;;5059769;28;20169;-89
2022/12/12 02:52:46;;;;;;;15.30;9.25;;;-0.90;99.90;;;;;;5060313;28;20193;-89
2022/12/12 02:55:12;;;;;;;18.00;9.82;;;-0.90;99.90;;;;;;5058198;28;20534;-89
2022/12/12 02:57:40;;;;;;;14.93;8.82;;;-0.90;99.90;;;;;;5057365;28;20178;-89
2022/12/12 03:00:11;;;;;;;17.40;9.23;;;-0.90;99.90;;;;;;5057372;28;20311;-89
2022/12/12 03:02:49;;;;;;;16.85;9.10;;;-0.90;99.90;;;;;;5057788;28;20170;-89
2022/12/12 03:08:39;;;;;;;13.85;8.55;;;-1.00;99.90;;;;;;5059522;28;20231;-90
2022/12/12 03:11:13;;;;;;;17.23;10.13;;;-1.00;99.90;;;;;;5058090;28;20177;-89
2022/12/12 03:13:51;;;;;;;15.88;9.45;;;-1.00;99.90;;;;;;5057728;28;20197;-89
2022/12/12 03:16:46;;;;;;;14.65;8.73;;;-1.10;99.90;;;;;;5039328;28;20272;-88
2022/12/12 03:19:25;;;;;;;17.50;9.02;;;-1.20;99.90;;;;;;5035521;28;20225;-89
2022/12/12 03:22:03;;;;;;;13.80;8.27;;;-1.20;99.90;;;;;;5039861;28;20620;-89
2022/12/12 03:24:50;;;;;;;17.20;10.60;;;-1.30;99.90;;;;;;5057648;28;20614;-88
2022/12/12 03:27:29;;;;;;;14.10;9.23;;;-1.40;99.90;;;;;;5057598;28;20575;-89
2022/12/12 03:30:09;;;;;;;17.80;8.02;;;-1.50;99.90;;;;;;5058384;28;20647;-89
2022/12/12 03:32:37;;;;;;;14.60;9.00;;;-1.50;99.90;;;;;;5040643;28;20236;-89
2022/12/12 03:35:11;;;;;;;14.20;8.35;;;-1.60;99.90;;;;;;5058791;28;20180;-89
2022/12/12 03:37:44;;;;;;;18.33;8.52;;;-1.70;99.90;;;;;;5058143;28;20175;-87
2022/12/12 03:40:22;;;;;;;15.02;8.10;;;-1.70;99.90;;;;;;5040590;28;20201;-89
2022/12/12 03:43:07;;;;;;;13.35;7.72;;;-1.80;99.90;;;;;;5059685;28;20169;-89
2022/12/12 03:45:45;;;;;;;16.23;8.73;;;-1.90;99.90;;;;;;5039601;28;20169;-89
2022/12/12 03:48:31;;;;;;;14.73;8.60;;;-1.90;99.90;;;;;;5039831;28;20629;-89
2022/12/12 03:51:17;;;;;;;15.98;7.72;;;-2.00;99.90;;;;;;5056896;28;20504;-89
2022/12/12 03:53:52;;;;;;;17.00;9.02;;;-1.90;99.90;;;;;;5056831;28;20575;-89
2022/12/12 03:56:29;;;;;;;15.02;8.77;;;-2.00;99.90;;;;;;5056766;28;20518;-89
2022/12/12 03:59:17;;;;;;;15.18;7.07;;;-2.10;99.90;;;;;;5057827;28;20252;-87
2022/12/12 04:02:00;;;;;;;19.90;9.07;;;-2.10;99.90;;;;;;5056233;28;20161;-89
2022/12/12 04:04:38;;;;;;;11.93;7.90;;;-2.20;99.90;;;;;;5039314;28;20197;-88
2022/12/12 04:07:36;;;;;;;19.35;8.82;;;-2.30;99.90;;;;;;5057531;28;20231;-89
2022/12/12 04:13:14;;;;;;;19.40;8.73;;;-2.30;99.90;;;;;;5041939;28;20204;-89
2022/12/12 04:15:56;;;;;;;14.27;7.22;;;-2.40;99.90;;;;;;5056431;28;20178;-88
2022/12/12 04:18:40;;;;;;;11.93;7.57;;;-2.40;99.90;;;;;;5059053;28;20223;-89
2022/12/12 04:24:35;;;;;;;14.40;8.50;;;-2.50;99.90;;;;;;5056487;28;20255;-87
2022/12/12 04:27:10;;;;;;;14.68;7.68;;;-2.50;99.90;;;;;;5056336;28;20161;-90
2022/12/12 04:29:45;;;;;;;12.77;7.13;;;-2.60;99.90;;;;;;5056410;28;20246;-90
2022/12/12 04:32:42;;;;;;;13.57;8.32;;;-2.50;99.90;;;;;;5056181;28;20197;-89
2022/12/12 04:35:26;;;;;;;13.05;7.22;;;-2.50;99.90;;;;;;5057347;28;20568;-90
2022/12/12 04:37:55;;;;;;;13.60;9.10;;;-2.50;99.90;;;;;;5039276;28;20181;-89
2022/12/12 04:40:31;;;;;;;13.18;8.07;;;-2.60;99.90;;;;;;5057196;28;20634;-88
2022/12/12 04:43:05;;;;;;;12.55;8.00;;;-2.60;99.90;;;;;;5056939;28;20169;-90
2022/12/12 04:45:37;;;;;;;12.57;7.18;;;-2.50;99.90;;;;;;5056945;28;20285;-89
2022/12/12 04:48:05;;;;;;;12.98;7.38;;;-2.50;99.90;;;;;;5039241;28;20201;-90
2022/12/12 04:50:32;;;;;;;12.73;8.10;;;-2.50;99.90;;;;;;5056347;28;20180;-89
2022/12/12 04:53:03;;;;;;;14.77;8.20;;;-2.40;99.90;;;;;;5039100;28;20669;-88
2022/12/12 04:55:33;;;;;;;11.55;7.35;;;-2.50;99.90;;;;;;5039187;28;20231;-84
2022/12/12 04:57:59;;;;;;;12.80;7.10;;;-2.40;99.90;;;;;;5038751;28;20268;-89
2022/12/12 05:00:29;;;;;;;14.37;7.50;;;-2.40;99.90;;;;;;5039497;28;20605;-89
2022/12/12 05:03:03;;;;;;;14.20;8.13;;;-2.40;99.90;;;;;;5056743;28;20935;-89
2022/12/12 05:05:33;;;;;;;11.30;7.93;;;-2.40;99.90;;;;;;5056629;28;20691;-85
2022/12/12 05:08:07;;;;;;;12.75;7.60;;;-2.40;99.90;;;;;;5057071;28;20182;-87
2022/12/12 05:10:33;;;;;;;14.95;7.60;;;-2.40;99.90;;;;;;5058111;28;20165;-88
2022/12/12 05:13:00;;;;;;;13.10;7.57;;;-2.40;99.90;;;;;;5041873;28;20249;-87
2022/12/12 05:15:27;;;;;;;16.13;8.85;;;-2.30;99.90;;;;;;5056201;28;20537;-88
2022/12/12 05:18:03;;;;;;;12.60;7.75;;;-2.30;99.90;;;;;;5038413;28;20632;-88
2022/12/12 05:20:29;;;;;;;13.82;8.15;;;-2.40;99.90;;;;;;5037999;28;20177;-89
2022/12/12 05:22:54;;;;;;;18.93;8.90;;;-2.40;99.90;;;;;;5055747;28;20181;-89
2022/12/12 05:25:20;;;;;;;13.77;7.20;;;-2.30;99.90;;;;;;5038608;28;20179;-89
2022/12/12 05:27:45;;;;;;;17.07;8.07;;;-2.30;99.90;;;;;;5052880;28;20180;-87
2022/12/12 05:30:12;;;;;;;16.27;7.30;;;-2.30;99.90;;;;;;5051579;28;20202;-83
2022/12/12 05:32:37;;;;;;;15.73;7.82;;;-2.30;99.90;;;;;;5040421;28;20201;-86
2022/12/12 05:35:04;;;;;;;12.50;8.30;;;-2.20;99.90;;;;;;5051789;28;20177;-89
2022/12/12 05:37:29;;;;;;;16.83;7.38;;;-2.20;99.90;;;;;;5059462;28;20207;-85
2022/12/12 05:39:55;;;;;;;13.80;7.30;;;-2.20;99.90;;;;;;5057834;28;20193;-89
2022/12/12 05:42:21;;;;;;;15.03;7.10;;;-2.20;99.90;;;;;;5060868;28;20312;-89
2022/12/12 05:44:46;;;;;;;13.10;6.90;;;-2.20;99.90;;;;;;5056249;28;20218;-89
2022/12/12 05:47:12;;;;;;;13.87;8.40;;;-2.20;99.90;;;;;;5038187;28;20182;-89
2022/12/12 05:49:37;;;;;;;12.43;6.83;;;-2.20;99.90;;;;;;5037802;28;20189;-89
2022/12/12 05:52:03;;;;;;;12.67;7.37;;;-2.20;99.90;;;;;;5038190;28;20664;-89
2022/12/12 05:54:29;;;;;;;14.40;7.17;;;-2.20;99.90;;;;;;5038178;28;20240;-90
2022/12/12 05:56:54;;;;;;;12.40;7.10;;;-2.30;99.90;;;;;;5056704;28;20190;-89
2022/12/12 05:59:20;;;;;;;14.90;7.83;;;-2.30;99.90;;;;;;5058012;28;20191;-89
2022/12/12 06:01:45;;;;;;;16.23;6.90;;;-2.30;99.90;;;;;;5022611;28;20253;-88
2022/12/12 06:04:11;;;;;;;11.47;6.83;;;-2.30;99.90;;;;;;5038156;28;20189;-88
2022/12/12 06:06:36;;;;;;;14.63;8.40;;;-2.40;99.90;;;;;;5056152;28;20678;-89
2022/12/12 06:09:02;;;;;;;13.30;7.43;;;-2.40;99.90;;;;;;5038453;28;20181;-88
2022/12/12 06:11:28;;;;;;;14.97;8.30;;;-2.40;99.90;;;;;;5055870;28;20178;-88
2022/12/12 06:13:54;;;;;;;17.37;9.10;;;-2.40;99.90;;;;;;5055854;28;20205;-89
2022/12/12 06:16:19;;;;;;;14.77;8.73;;;-2.40;99.90;;;;;;5043285;28;20409;-89
2022/12/12 06:18:50;;;;;;;13.97;7.47;;;-2.40;99.90;;;;;;5042197;28;20234;-88
2022/12/12 06:21:16;;;;;;;13.88;6.15;;;-2.40;99.90;;;;;;5059833;28;20553;-88
2022/12/12 06:23:42;;;;;;;14.10;7.70;;;-2.30;99.90;;;;;;5041282;28;20191;-88
2022/12/12 06:26:10;;;;;;;15.27;8.33;;;-2.40;99.90;;;;;;5040961;28;20205;-89
2022/12/12 06:28:37;;;;;;;16.75;7.80;;;-2.40;99.90;;;;;;5041813;28;20174;-87
2022/12/12 06:31:03;;;;;;;14.07;8.68;;;-2.50;99.90;;;;;;5058728;28;20184;-88
2022/12/12 06:33:31;;;;;;;18.45;8.20;;;-2.50;99.90;;;;;;5041471;28;20221;-88
2022/12/12 06:35:59;;;;;;;13.52;7.63;;;-2.50;99.90;;;;;;5024484;28;20186;-88
2022/12/12 06:38:24;;;;;;;10.95;6.93;;;-2.50;99.90;;;;;;5059165;28;20233;-87
2022/12/12 06:40:50;;;;;;;16.87;7.43;;;-2.50;99.90;;;;;;5041259;28;20213;-88
2022/12/12 06:43:16;;;;;;;12.30;7.37;;;-2.50;99.90;;;;;;5043314;28;20185;-89
2022/12/12 06:45:41;;;;;;;14.30;7.80;;;-2.50;99.90;;;;;;5042011;28;20765;-88
2022/12/12 06:48:07;;;;;;;12.43;7.23;;;-2.50;99.90;;;;;;5041007;28;20177;-88
2022/12/12 06:50:32;;;;;;;15.87;7.73;;;-2.50;99.90;;;;;;5061755;28;20179;-89
2022/12/12 06:52:58;;;;;;;10.63;6.63;;;-2.50;99.90;;;;;;5025950;28;20584;-88
2022/12/12 06:55:23;;;;;;;10.93;8.13;;;-2.50;99.90;;;;;;5025063;28;20182;-88
2022/12/12 06:57:49;;;;;;;15.60;7.07;;;-2.60;99.90;;;;;;5024197;28;20177;-88
2022/12/12 07:00:15;;;;;;;15.77;7.83;;;-2.60;99.90;;;;;;5045334;28;20244;-87
2022/12/12 07:02:41;;;;;;;12.63;7.40;;;-2.60;99.90;;;;;;5043214;28;20653;-88
2022/12/12 07:05:06;;;;;;;18.90;9.00;;;-2.60;99.90;;;;;;5060506;28;20190;-88
2022/12/12 07:07:32;;;;;;;12.10;7.27;;;-2.60;99.90;;;;;;5061204;28;20176;-88
2022/12/12 07:09:58;;;;;;;13.43;8.00;;;-2.60;99.90;;;;;;5040392;28;20191;-88
2022/12/12 07:12:24;;;;;;;16.90;7.53;;;-2.60;99.90;;;;;;5040815;28;20655;-88
2022/12/12 07:14:49;;;;;;;12.90;7.15;;;-2.60;99.90;;;;;;5040086;28;20181;-88
2022/12/12 07:17:15;;;;;;;14.30;7.80;;;-2.60;99.90;;;;;;5040908;28;20653;-89
2022/12/12 07:19:41;;;;;;;15.83;7.33;;;-2.60;99.90;;;;;;5057418;28;20584;-88
2022/12/12 07:22:06;;;;;;;17.83;9.33;;;-2.60;99.90;;;;;;5040152;28;20208;-88
2022/12/12 07:24:32;;;;;;;11.60;7.47;;;-2.60;99.90;;;;;;5040285;28;20240;-88
2022/12/12 07:26:57;;;;;;;16.07;9.03;;;-2.60;99.90;;;;;;5038231;28;20742;-88
2022/12/12 07:29:23;;;;;;;15.87;7.77;;;-2.60;99.90;;;;;;5039724;28;20625;-88
2022/12/12 07:31:49;;;;;;;15.00;6.50;;;-2.70;99.90;;;;;;5057717;28;20178;-88
2022/12/12 07:34:14;;;;;;;11.23;6.60;;;-2.60;99.90;;;;;;5039709;28;20193;-89
2022/12/12 07:36:41;;;;;;;12.20;7.77;;;-2.70;99.90;;;;;;5040552;28;20618;-88
2022/12/12 07:39:06;;;;;;;15.23;8.30;;;-2.60;99.90;;;;;;5043159;28;20185;-88
2022/12/12 07:41:32;;;;;;;15.00;8.07;;;-2.70;99.90;;;;;;5060250;28;20185;-89
2022/12/12 07:43:58;;;;;;;12.40;7.30;;;-2.70;99.90;;;;;;5043471;28;20469;-88
2022/12/12 07:46:24;;;;;;;15.35;7.13;;;-2.70;99.90;;;;;;5061219;28;20177;-87
2022/12/12 07:48:51;;;;;;;14.35;7.70;;;-2.70;99.90;;;;;;5026612;28;20181;-88
2022/12/12 07:51:18;;;;;;;13.80;7.70;;;-2.70;99.90;;;;;;5042436;28;20182;-89
2022/12/12 07:53:43;;;;;;;16.30;8.68;;;-2.70;99.90;;;;;;5040718;28;20573;-88
2022/12/12 07:56:11;;;;;;;11.63;7.10;;;-2.70;99.90;;;;;;5041114;28;20181;-89
2022/12/12 07:58:38;;;;;;;11.23;7.10;;;-2.70;99.90;;;;;;5024950;28;20185;-89
2022/12/12 08:01:19;;;;;;;16.40;8.75;;;-2.70;99.90;;;;;;5059490;28;20200;-89
2022/12/12 08:03:45;;;;;;;12.90;8.38;;;-2.70;99.90;;;;;;5059243;28;20188;-89
2022/12/12 08:06:12;;;;;;;17.63;8.23;;;-2.70;99.90;;;;;;5058248;28;20331;-89
2022/12/12 08:08:38;;;;;;;19.13;10.90;;;-2.70;99.90;;;;;;5041327;28;20203;-89
2022/12/12 08:11:05;;;;;;;15.83;8.50;;;-2.60;99.90;;;;;;5058769;28;20173;-89
2022/12/12 08:13:33;;;;;;;16.65;8.88;;;-2.60;99.90;;;;;;5059619;28;20478;-89
2022/12/12 08:15:59;;;;;;;17.58;8.02;;;-2.70;99.90;;;;;;5039265;28;20181;-88
2022/12/12 08:18:24;;;;;;;14.37;8.37;;;-2.60;99.90;;;;;;5039736;28;20211;-89
2022/12/12 08:20:50;;;;;;;12.73;7.87;;;-2.60;99.90;;;;;;5039041;28;20189;-89
2022/12/12 08:23:15;;;;;;;14.73;8.57;;;-2.60;99.90;;;;;;5075847;28;20280;-90
2022/12/12 08:25:41;;;;;;;15.97;8.67;;;-2.60;99.90;;;;;;5058505;28;20181;-86
2022/12/12 08:28:07;;;;;;;19.17;9.88;;;-2.60;99.90;;;;;;5075601;28;20249;-88
2022/12/12 08:30:33;;;;;;;14.53;8.30;;;-2.60;99.90;;;;;;5076248;28;20181;-90
2022/12/12 08:33:01;;;;;;;11.60;7.40;;;-2.60;99.90;;;;;;5060793;28;20230;-89
2022/12/12 08:35:29;;;;;;;12.50;7.63;;;-2.60;99.90;;;;;;5078562;28;20177;-90
2022/12/12 08:37:54;;;;;;;14.80;7.97;;;-2.60;99.90;;;;;;5076803;28;20312;-90
2022/12/12 08:40:20;;;;;;;17.50;8.90;;;-2.50;99.90;;;;;;5059708;28;20219;-89
2022/12/12 08:42:46;;;;;;;13.67;8.40;;;-2.50;99.90;;;;;;5077234;28;20180;-89
2022/12/12 08:45:11;;;;;;;15.90;7.47;;;-2.40;99.90;;;;;;5046765;28;20259;-89
2022/12/12 08:47:37;;;;;;;13.37;7.90;;;-2.30;99.90;;;;;;5079457;28;20192;-90
2022/12/12 08:50:04;;;;;;;15.33;8.50;;;-2.20;99.90;;;;;;5080496;28;20222;-90
2022/12/12 08:52:29;;;;;;;12.88;7.97;;;-2.20;99.90;;;;;;5037222;28;20204;-90
2022/12/12 08:54:55;;;;;;;12.93;7.73;;;-2.10;99.90;;;;;;5052204;28;20181;-90
2022/12/12 08:57:21;;;;;;;19.53;8.80;;;-2.00;99.90;;;;;;5077838;28;20177;-90
2022/12/12 08:59:46;;;;;;;14.80;7.63;;;-1.90;99.90;;;;;;5059936;28;20180;-90
2022/12/12 09:02:12;;;;;;;14.80;9.27;;;-1.90;99.90;;;;;;5049864;28;20180;-82
2022/12/12 09:04:37;;;;;;;15.60;8.43;;;-1.80;99.90;;;;;;5060663;28;20208;-83
2022/12/12 09:07:03;;;;;;;10.40;7.50;;;-1.80;99.90;;;;;;5040724;28;20691;-84
2022/12/12 09:09:29;;;;;;;18.83;10.10;;;-1.70;99.90;;;;;;5075163;28;20181;-84
2022/12/12 09:11:54;;;;;;;17.33;9.57;;;-1.70;99.90;;;;;;5075216;28;20605;-84
2022/12/12 09:14:20;;;;;;;15.67;8.70;;;-1.60;99.90;;;;;;5075797;28;20203;-84
2022/12/12 09:16:46;;;;;;;14.80;6.80;;;-1.50;99.90;;;;;;5057067;28;20169;-85
2022/12/12 09:19:11;;;;;;;16.77;8.23;;;-1.50;99.90;;;;;;5058383;28;20177;-84
2022/12/12 09:21:37;;;;;;;10.03;5.70;;;-1.40;99.90;;;;;;5057358;28;20907;-83
2022/12/12 09:24:03;;;;;;;10.63;6.73;;;-1.20;99.90;;;;;;5040289;28;20181;-83
2022/12/12 09:26:28;;;;;;;15.27;7.30;;;-1.20;99.90;;;;;;5040706;28;20542;-84
2022/12/12 09:28:54;;;;;;;13.23;7.97;;;-1.10;99.90;;;;;;5074880;28;20203;-83
2022/12/12 09:31:20;;;;;;;10.80;6.67;;;-1.00;99.90;;;;;;5075230;28;20187;-82
2022/12/12 09:33:46;;;;;;;16.50;8.50;;;-0.90;99.90;;;;;;5041708;28;20201;-85
2022/12/12 09:36:12;;;;;;;14.43;7.73;;;-0.90;99.90;;;;;;5030996;28;20456;-83
2022/12/12 09:38:38;;;;;;;13.38;8.27;;;-0.80;99.90;;;;;;5059497;28;20942;-83
2022/12/12 09:41:25;;;;;;;14.00;7.70;;;-0.80;99.90;;;;;;5060537;28;20180;-83
2022/12/12 09:44:02;;;;;;;13.20;8.57;;;-0.60;99.90;;;;;;5079021;28;20391;-83
2022/12/12 09:46:50;;;;;;;12.13;6.95;;;-0.50;99.90;;;;;;5078388;28;20168;-83
2022/12/12 09:49:41;;;;;;;9.32;6.38;;;-0.40;99.90;;;;;;5075101;28;20174;-84
2022/12/12 09:52:14;;;;;;;12.35;7.50;;;-0.30;99.90;;;;;;5080924;28;20250;-83
2022/12/12 09:54:40;;;;;;;9.73;6.38;;;-0.10;99.90;;;;;;5075925;28;20173;-83
2022/12/12 09:57:08;;;;;;;16.37;7.63;;;0.00;99.90;;;;;;5043760;28;20198;-83
2022/12/12 09:59:40;;;;;;;13.38;7.75;;;0.00;99.90;;;;;;5043595;28;20180;-83
2022/12/12 10:02:27;;;;;;;12.63;7.80;;;0.10;99.90;;;;;;5062255;28;20173;-83
2022/12/12 10:05:26;;;;;;;10.68;6.45;;;0.30;99.90;;;;;;5043546;28;20585;-83
2022/12/12 10:08:04;;;;;;;12.50;7.38;;;0.40;99.90;;;;;;5061039;28;20183;-83
2022/12/12 10:10:35;;;;;;;14.18;7.82;;;0.40;99.90;;;;;;5043041;28;20177;-83
2022/12/12 10:13:03;;;;;;;10.48;7.00;;;0.70;99.90;;;;;;5044425;28;20238;-84
2022/12/12 10:15:41;;;;;;;10.73;6.65;;;0.70;99.90;;;;;;5060475;28;20188;-83
2022/12/12 10:18:27;;;;;;;10.02;6.82;;;0.80;99.90;;;;;;5042193;28;20181;-84
2022/12/12 10:20:56;;;;;;;12.43;7.03;;;0.90;99.90;;;;;;5060976;28;20185;-84
2022/12/12 10:23:37;;;;;;;10.98;7.47;;;1.20;99.90;;;;;;5042715;28;20196;-83
2022/12/12 10:26:24;;;;;;;11.07;7.47;;;1.20;99.90;;;;;;5041562;28;20169;-84
2022/12/12 10:28:54;;;;;;;11.68;7.07;;;1.30;99.90;;;;;;5078854;28;20223;-85
2022/12/12 10:31:42;;;;;;;10.80;6.78;;;1.60;99.90;;;;;;5080899;28;20173;-84
2022/12/12 10:34:36;;;;;;;15.20;7.63;;;1.80;99.90;;;;;;5062580;28;20251;-84
2022/12/12 10:37:13;;;;;;;13.18;7.78;;;1.90;99.90;;;;;;5063173;28;20284;-84
2022/12/12 10:39:44;;;;;;;14.75;8.45;;;2.20;99.90;;;;;;5077958;28;20237;-84
2022/12/12 10:42:46;;;;;;;11.77;6.85;;;2.40;99.90;;;;;;5061097;28;20196;-85
2022/12/12 10:45:43;;;;;;;9.45;6.28;;;2.40;99.90;;;;;;5069615;28;20321;-85
2022/12/12 10:48:09;;;;;;;10.35;6.50;;;2.20;99.90;;;;;;5078555;28;20187;-84
2022/12/12 10:50:47;;;;;;;10.83;6.50;;;2.40;99.90;;;;;;5062893;28;20549;-84
2022/12/12 10:53:13;;;;;;;11.15;6.35;;;2.70;99.90;;;;;;5081132;28;20454;-84
2022/12/12 10:56:03;;;;;;;12.40;7.23;;;3.00;99.90;;;;;;5062315;28;20176;-85
2022/12/12 10:58:40;;;;;;;13.25;6.95;;;3.30;99.90;;;;;;5063390;28;20411;-85
2022/12/12 11:01:18;;;;;;;10.30;6.68;;;3.50;99.90;;;;;;5080904;28;20168;-85
2022/12/12 11:03:46;;;;;;;10.70;6.45;;;3.80;99.90;;;;;;5080628;28;20227;-84
2022/12/12 11:06:17;;;;;;;8.38;5.70;;;3.70;99.90;;;;;;5080248;28;20308;-85
2022/12/12 11:09:20;;;;;;;9.98;6.55;;;3.50;99.90;;;;;;5080926;28;20161;-84
2022/12/12 11:12:10;;;;;;;9.90;5.72;;;3.70;99.90;;;;;;5063615;28;20640;-85
2022/12/12 11:14:43;;;;;;;16.30;6.97;;;4.10;99.90;;;;;;5081602;28;20153;-85
2022/12/12 11:17:25;;;;;;;14.68;8.32;;;4.00;99.90;;;;;;5064193;28;20193;-85
2022/12/12 11:19:52;;;;;;;11.80;7.45;;;4.30;99.90;;;;;;5061775;28;20546;-85
2022/12/12 11:22:18;;;;;;;10.52;6.75;;;4.30;99.90;;;;;;5059636;28;20780;-85
2022/12/12 11:24:46;;;;;;;10.60;6.75;;;4.10;99.90;;;;;;5059155;28;20180;-84
2022/12/12 11:27:39;;;;;;;11.95;6.90;;;4.40;99.90;;;;;;5076949;28;20176;-85
2022/12/12 11:30:21;;;;;;;10.95;6.45;;;4.20;99.90;;;;;;5055033;28;20181;-85
2022/12/12 11:32:50;;;;;;;7.18;5.85;;;4.30;99.90;;;;;;5052760;28;20216;-84
2022/12/12 11:35:24;;;;;;;12.52;6.13;;;4.50;99.90;;;;;;5079677;28;20197;-84
2022/12/12 11:38:04;;;;;;;8.70;6.15;;;4.60;99.90;;;;;;5079244;28;20377;-84
2022/12/12 11:40:35;;;;;;;12.45;5.70;;;5.00;99.90;;;;;;5079050;28;20218;-84
2022/12/12 11:43:13;;;;;;;8.93;6.07;;;5.00;99.90;;;;;;5063612;28;20211;-84
2022/12/12 11:45:38;;;;;;;11.80;6.53;;;5.40;99.90;;;;;;5061638;28;20240;-84
2022/12/12 11:48:32;;;;;;;9.47;6.10;;;5.70;99.90;;;;;;5046418;28;20569;-84
2022/12/12 11:50:57;;;;;;;12.80;6.40;;;6.30;99.90;;;;;;5061827;28;20241;-84
2022/12/12 11:53:24;;;;;;;10.23;5.53;;;6.20;99.90;;;;;;5046161;28;20695;-84
2022/12/12 11:55:58;;;;;;;8.52;5.53;;;6.40;99.90;;;;;;5046747;28;20242;-84
2022/12/12 11:58:36;;;;;;;9.98;5.97;;;6.80;99.90;;;;;;5063100;28;20174;-83
2022/12/12 12:01:20;;;;;;;9.73;6.85;;;6.60;99.90;;;;;;5077650;28;20168;-83
2022/12/12 12:04:05;;;;;;;8.95;6.20;;;6.50;99.90;;;;;;5059677;28;20184;-84
2022/12/12 12:07:10;;;;;;;8.48;5.70;;;6.60;99.90;;;;;;5060131;28;20228;-83
2022/12/12 12:09:52;;;;;;;10.82;7.32;;;6.90;99.90;;;;;;5077848;28;20255;-83
2022/12/12 12:12:57;;;;;;;10.38;5.90;;;6.90;99.90;;;;;;5077015;28;20587;-83
2022/12/12 12:15:39;;;;;;;9.18;5.78;;;6.80;99.90;;;;;;5075251;28;20192;-84
2022/12/12 12:18:14;;;;;;;8.70;5.47;;;6.50;99.90;;;;;;5059859;28;20181;-83
2022/12/12 12:21:05;;;;;;;11.82;5.85;;;6.30;99.90;;;;;;5078153;28;20167;-83
2022/12/12 12:23:44;;;;;;;11.68;5.50;;;5.90;99.90;;;;;;5078934;28;20203;-83
2022/12/12 12:26:28;;;;;;;8.00;5.55;;;5.70;99.90;;;;;;5079880;28;20180;-82
2022/12/12 12:29:08;;;;;;;10.93;5.68;;;5.70;99.90;;;;;;5062235;28;20180;-83
2022/12/12 12:32:11;;;;;;;8.63;6.10;;;5.70;99.90;;;;;;5061894;28;20173;-83
2022/12/12 12:34:43;;;;;;;14.35;5.60;;;5.50;99.90;;;;;;5062350;28;20187;-83
2022/12/12 12:37:48;;;;;;;9.52;6.63;;;5.40;99.90;;;;;;5080312;28;20173;-83
2022/12/12 12:40:14;;;;;;;9.98;6.10;;;5.40;99.90;;;;;;5068912;28;20707;-83
2022/12/12 12:43:20;;;;;;;9.97;5.77;;;5.30;99.90;;;;;;5063572;28;20191;-83
2022/12/12 12:45:56;;;;;;;9.00;5.95;;;5.20;99.90;;;;;;5054404;28;20191;-83
2022/12/12 12:48:29;;;;;;;8.80;5.45;;;4.90;99.90;;;;;;5081221;28;20153;-83
2022/12/12 12:51:00;;;;;;;6.80;4.88;;;5.00;99.90;;;;;;5080212;28;20164;-82
2022/12/12 12:53:42;;;;;;;9.50;6.40;;;5.00;99.90;;;;;;5063734;28;20212;-82
2022/12/12 12:56:22;;;;;;;10.98;6.13;;;5.00;99.90;;;;;;5065676;28;20167;-82
2022/12/12 12:58:50;;;;;;;9.73;6.85;;;5.00;99.90;;;;;;5079123;28;20172;-84
2022/12/12 13:01:23;;;;;;;9.82;6.60;;;5.10;99.90;;;;;;5060590;28;20185;-82
2022/12/12 13:03:58;;;;;;;10.05;5.93;;;5.10;99.90;;;;;;5059460;28;20179;-84
2022/12/12 13:06:40;;;;;;;9.25;5.97;;;5.20;99.90;;;;;;5077839;28;20310;-83
2022/12/12 13:09:14;;;;;;;13.40;7.25;;;5.50;99.90;;;;;;5059256;28;20654;-82
2022/12/12 13:11:44;;;;;;;9.65;6.45;;;5.60;99.90;;;;;;5078703;28;20676;-84
2022/12/12 13:14:18;;;;;;;11.13;6.60;;;5.80;99.90;;;;;;5057021;28;20217;-83